<?xml version="1.0"?>
<gpx xmlns="http://www.topografix.com/GPX/1/1" xmlns:xsi="http://www.w3.org/2001/XMLSchema-instance" version="1.1" creator="AllTrails.com" xsi:schemaLocation="http://www.topografix.com/GPX/1/1 http://www.topografix.com/GPX/1/1/gpx.xsd">
  <metadata>
    <name><![CDATA[Panoramaweg Feldatal Tour II]]></name>
    <desc><![CDATA[]]></desc>
    <link href="http://www.alltrails.com">
      <text>AllTrails, LLC</text>
    </link>
    <bounds minlat="50.63267" minlon="9.13264" maxlat="50.66683" maxlon="9.17171"/>
  </metadata>
  <trk>
    <name><![CDATA[Panoramaweg Feldatal Tour II]]></name>
    <src>AllTrails</src>
    <trkseg>
      <trkpt lat="50.64984" lon="9.17171">
        <ele>321.42</ele>
        <time>2015-03-14T18:17:08Z</time>
      </trkpt>
      <trkpt lat="50.64997" lon="9.17143">
        <ele>322.05</ele>
        <time>2015-03-14T18:18:13Z</time>
      </trkpt>
      <trkpt lat="50.65024" lon="9.17166">
        <ele>322.63</ele>
        <time>2015-03-14T18:18:27Z</time>
      </trkpt>
      <trkpt lat="50.6508" lon="9.17063">
        <ele>316.17</ele>
        <time>2015-03-14T18:19:31Z</time>
      </trkpt>
      <trkpt lat="50.65132" lon="9.17018">
        <ele>318.31</ele>
        <time>2015-03-14T18:20:17Z</time>
      </trkpt>
      <trkpt lat="50.65165" lon="9.17014">
        <ele>316.62</ele>
        <time>2015-03-14T18:20:45Z</time>
      </trkpt>
      <trkpt lat="50.65173" lon="9.16964">
        <ele>315.3</ele>
        <time>2015-03-14T18:22:05Z</time>
      </trkpt>
      <trkpt lat="50.65188" lon="9.16921">
        <ele>316.54</ele>
        <time>2015-03-14T18:22:18Z</time>
      </trkpt>
      <trkpt lat="50.652" lon="9.16915">
        <ele>316.27</ele>
        <time>2015-03-14T18:22:34Z</time>
      </trkpt>
      <trkpt lat="50.65224" lon="9.16879">
        <ele>314.96</ele>
        <time>2015-03-14T18:22:56Z</time>
      </trkpt>
      <trkpt lat="50.65244" lon="9.16862">
        <ele>314.97</ele>
        <time>2015-03-14T18:23:09Z</time>
      </trkpt>
      <trkpt lat="50.65265" lon="9.16862">
        <ele>312.77</ele>
        <time>2015-03-14T18:23:21Z</time>
      </trkpt>
      <trkpt lat="50.65294" lon="9.16843">
        <ele>310.66</ele>
        <time>2015-03-14T18:23:53Z</time>
      </trkpt>
      <trkpt lat="50.65311" lon="9.1682">
        <ele>311.38</ele>
      </trkpt>
      <trkpt lat="50.65324" lon="9.16794">
        <ele>312.0</ele>
        <time>2015-03-14T18:24:20Z</time>
      </trkpt>
      <trkpt lat="50.65329" lon="9.1678">
        <ele>312.0</ele>
        <time>2015-03-14T18:24:30Z</time>
      </trkpt>
      <trkpt lat="50.65366" lon="9.16663">
        <ele>306.09</ele>
        <time>2015-03-14T18:25:27Z</time>
      </trkpt>
      <trkpt lat="50.65386" lon="9.16622">
        <ele>305.31</ele>
        <time>2015-03-14T18:25:47Z</time>
      </trkpt>
      <trkpt lat="50.65397" lon="9.16598">
        <ele>306.54</ele>
        <time>2015-03-14T18:25:54Z</time>
      </trkpt>
      <trkpt lat="50.65436" lon="9.16402">
        <ele>302.94</ele>
        <time>2015-03-14T18:27:25Z</time>
      </trkpt>
      <trkpt lat="50.65441" lon="9.16389">
        <ele>302.25</ele>
        <time>2015-03-14T18:27:32Z</time>
      </trkpt>
      <trkpt lat="50.65464" lon="9.16314">
        <ele>305.94</ele>
      </trkpt>
      <trkpt lat="50.65475" lon="9.1626">
        <ele>304.18</ele>
      </trkpt>
      <trkpt lat="50.65488" lon="9.16187">
        <ele>304.34</ele>
        <time>2015-03-14T18:29:02Z</time>
      </trkpt>
      <trkpt lat="50.65489" lon="9.16154">
        <ele>306.15</ele>
        <time>2015-03-14T18:29:17Z</time>
      </trkpt>
      <trkpt lat="50.65488" lon="9.1614">
        <ele>306.78</ele>
        <time>2015-03-14T18:29:22Z</time>
      </trkpt>
      <trkpt lat="50.6548" lon="9.16066">
        <ele>307.39</ele>
        <time>2015-03-14T18:30:02Z</time>
      </trkpt>
      <trkpt lat="50.65478" lon="9.1594">
        <ele>306.53</ele>
        <time>2015-03-14T18:31:23Z</time>
      </trkpt>
      <trkpt lat="50.65475" lon="9.15899">
        <ele>305.5</ele>
      </trkpt>
      <trkpt lat="50.65469" lon="9.15856">
        <ele>303.65</ele>
        <time>2015-03-14T18:31:59Z</time>
      </trkpt>
      <trkpt lat="50.65468" lon="9.15825">
        <ele>303.24</ele>
      </trkpt>
      <trkpt lat="50.65477" lon="9.15772">
        <ele>303.82</ele>
      </trkpt>
      <trkpt lat="50.65498" lon="9.1569">
        <ele>306.25</ele>
      </trkpt>
      <trkpt lat="50.65498" lon="9.15654">
        <ele>308.78</ele>
      </trkpt>
      <trkpt lat="50.6549" lon="9.15618">
        <ele>308.76</ele>
        <time>2015-03-14T18:33:57Z</time>
      </trkpt>
      <trkpt lat="50.6548" lon="9.15552">
        <ele>307.75</ele>
      </trkpt>
      <trkpt lat="50.65476" lon="9.15511">
        <ele>304.73</ele>
      </trkpt>
      <trkpt lat="50.65481" lon="9.15459">
        <ele>301.32</ele>
      </trkpt>
      <trkpt lat="50.65496" lon="9.15399">
        <ele>302.35</ele>
        <time>2015-03-14T18:35:47Z</time>
      </trkpt>
      <trkpt lat="50.65502" lon="9.15337">
        <ele>306.95</ele>
      </trkpt>
      <trkpt lat="50.65502" lon="9.15274">
        <ele>307.37</ele>
        <time>2015-03-14T18:36:43Z</time>
      </trkpt>
      <trkpt lat="50.65481" lon="9.15119">
        <ele>306.58</ele>
        <time>2015-03-14T18:37:49Z</time>
      </trkpt>
      <trkpt lat="50.65473" lon="9.15044">
        <ele>306.2</ele>
      </trkpt>
      <trkpt lat="50.65475" lon="9.14966">
        <ele>308.48</ele>
        <time>2015-03-14T18:38:54Z</time>
      </trkpt>
      <trkpt lat="50.65493" lon="9.14766">
        <ele>305.53</ele>
      </trkpt>
      <trkpt lat="50.65503" lon="9.14728">
        <ele>303.9</ele>
        <time>2015-03-14T18:40:40Z</time>
      </trkpt>
      <trkpt lat="50.65518" lon="9.14703">
        <ele>303.32</ele>
      </trkpt>
      <trkpt lat="50.65668" lon="9.14551">
        <ele>307.78</ele>
        <time>2015-03-14T18:42:57Z</time>
      </trkpt>
      <trkpt lat="50.65685" lon="9.14542">
        <ele>305.23</ele>
        <time>2015-03-14T18:43:10Z</time>
      </trkpt>
      <trkpt lat="50.65747" lon="9.14541">
        <ele>311.1</ele>
      </trkpt>
      <trkpt lat="50.65812" lon="9.14559">
        <ele>311.4</ele>
        <time>2015-03-14T18:44:32Z</time>
      </trkpt>
      <trkpt lat="50.65943" lon="9.14634">
        <ele>303.56</ele>
        <time>2015-03-14T18:46:04Z</time>
      </trkpt>
      <trkpt lat="50.66002" lon="9.14673">
        <ele>305.05</ele>
        <time>2015-03-14T18:48:24Z</time>
      </trkpt>
      <trkpt lat="50.66141" lon="9.14731">
        <ele>295.39</ele>
      </trkpt>
      <trkpt lat="50.6626" lon="9.14805">
        <ele>291.05</ele>
      </trkpt>
      <trkpt lat="50.66276" lon="9.14807">
        <ele>292.96</ele>
        <time>2015-03-14T18:52:11Z</time>
      </trkpt>
      <trkpt lat="50.66309" lon="9.14774">
        <ele>292.57</ele>
      </trkpt>
      <trkpt lat="50.66567" lon="9.14874">
        <ele>287.16</ele>
        <time>2015-03-14T18:55:43Z</time>
      </trkpt>
      <trkpt lat="50.66585" lon="9.14878">
        <ele>285.85</ele>
        <time>2015-03-14T18:55:50Z</time>
      </trkpt>
      <trkpt lat="50.66596" lon="9.14871">
        <ele>285.36</ele>
        <time>2015-03-14T18:56:07Z</time>
      </trkpt>
      <trkpt lat="50.66595" lon="9.14857">
        <ele>284.21</ele>
        <time>2015-03-14T18:56:23Z</time>
      </trkpt>
      <trkpt lat="50.66602" lon="9.14855">
        <ele>284.3</ele>
        <time>2015-03-14T18:57:19Z</time>
      </trkpt>
      <trkpt lat="50.66594" lon="9.14825">
        <ele>283.0</ele>
        <time>2015-03-14T18:57:27Z</time>
      </trkpt>
      <trkpt lat="50.66568" lon="9.14666">
        <ele>285.27</ele>
        <time>2015-03-14T18:58:39Z</time>
      </trkpt>
      <trkpt lat="50.66548" lon="9.14611">
        <ele>288.2</ele>
        <time>2015-03-14T18:59:08Z</time>
      </trkpt>
      <trkpt lat="50.66542" lon="9.14566">
        <ele>295.41</ele>
        <time>2015-03-14T18:59:28Z</time>
      </trkpt>
      <trkpt lat="50.66471" lon="9.14438">
        <ele>296.78</ele>
        <time>2015-03-14T19:00:58Z</time>
      </trkpt>
      <trkpt lat="50.66463" lon="9.14408">
        <ele>295.55</ele>
        <time>2015-03-14T19:01:11Z</time>
      </trkpt>
      <trkpt lat="50.66469" lon="9.14394">
        <ele>296.61</ele>
        <time>2015-03-14T19:01:19Z</time>
      </trkpt>
      <trkpt lat="50.66525" lon="9.14396">
        <ele>307.96</ele>
      </trkpt>
      <trkpt lat="50.6658" lon="9.14417">
        <ele>324.51</ele>
        <time>2015-03-14T19:02:49Z</time>
      </trkpt>
      <trkpt lat="50.66626" lon="9.14447">
        <ele>330.68</ele>
      </trkpt>
      <trkpt lat="50.66676" lon="9.14452">
        <ele>331.64</ele>
        <time>2015-03-14T19:03:59Z</time>
      </trkpt>
      <trkpt lat="50.66683" lon="9.14442">
        <ele>333.39</ele>
        <time>2015-03-14T19:04:09Z</time>
      </trkpt>
      <trkpt lat="50.66678" lon="9.14428">
        <ele>335.72</ele>
        <time>2015-03-14T19:04:24Z</time>
      </trkpt>
      <trkpt lat="50.66599" lon="9.14312">
        <ele>338.25</ele>
        <time>2015-03-14T19:06:07Z</time>
      </trkpt>
      <trkpt lat="50.66544" lon="9.14083">
        <ele>354.52</ele>
      </trkpt>
      <trkpt lat="50.66457" lon="9.1387">
        <ele>367.46</ele>
        <time>2015-03-14T19:09:52Z</time>
      </trkpt>
      <trkpt lat="50.66409" lon="9.13739">
        <ele>356.93</ele>
      </trkpt>
      <trkpt lat="50.66392" lon="9.13601">
        <ele>362.84</ele>
        <time>2015-03-14T19:11:57Z</time>
      </trkpt>
      <trkpt lat="50.66392" lon="9.1356">
        <ele>366.63</ele>
      </trkpt>
      <trkpt lat="50.65784" lon="9.1333">
        <ele>363.9</ele>
        <time>2015-03-14T19:20:49Z</time>
      </trkpt>
      <trkpt lat="50.65584" lon="9.13344">
        <ele>355.82</ele>
        <time>2015-03-14T19:24:28Z</time>
      </trkpt>
      <trkpt lat="50.65554" lon="9.13303">
        <ele>356.89</ele>
        <time>2015-03-14T19:24:52Z</time>
      </trkpt>
      <trkpt lat="50.65415" lon="9.13264">
        <ele>342.53</ele>
        <time>2015-03-14T19:26:33Z</time>
      </trkpt>
      <trkpt lat="50.65411" lon="9.13365">
        <ele>343.56</ele>
      </trkpt>
      <trkpt lat="50.65395" lon="9.13418">
        <ele>339.27</ele>
      </trkpt>
      <trkpt lat="50.65403" lon="9.13516">
        <ele>330.63</ele>
      </trkpt>
      <trkpt lat="50.65432" lon="9.13537">
        <ele>330.99</ele>
        <time>2015-03-14T19:28:38Z</time>
      </trkpt>
      <trkpt lat="50.65389" lon="9.13789">
        <ele>314.2</ele>
      </trkpt>
      <trkpt lat="50.65379" lon="9.13869">
        <ele>308.36</ele>
        <time>2015-03-14T19:31:13Z</time>
      </trkpt>
      <trkpt lat="50.65325" lon="9.13858">
        <ele>307.57</ele>
      </trkpt>
      <trkpt lat="50.65275" lon="9.13817">
        <ele>309.35</ele>
        <time>2015-03-14T19:32:33Z</time>
      </trkpt>
      <trkpt lat="50.65193" lon="9.1361">
        <ele>315.02</ele>
        <time>2015-03-14T19:34:21Z</time>
      </trkpt>
      <trkpt lat="50.65159" lon="9.13523">
        <ele>316.89</ele>
      </trkpt>
      <trkpt lat="50.65109" lon="9.13471">
        <ele>313.81</ele>
        <time>2015-03-14T19:35:46Z</time>
      </trkpt>
      <trkpt lat="50.65072" lon="9.13454">
        <ele>311.54</ele>
        <time>2015-03-14T19:36:07Z</time>
      </trkpt>
      <trkpt lat="50.65067" lon="9.13487">
        <ele>311.84</ele>
        <time>2015-03-14T19:36:28Z</time>
      </trkpt>
      <trkpt lat="50.65082" lon="9.1351">
        <ele>312.07</ele>
        <time>2015-03-14T19:36:45Z</time>
      </trkpt>
      <trkpt lat="50.65109" lon="9.13563">
        <ele>314.96</ele>
      </trkpt>
      <trkpt lat="50.65129" lon="9.13632">
        <ele>316.05</ele>
      </trkpt>
      <trkpt lat="50.65134" lon="9.13693">
        <ele>316.19</ele>
      </trkpt>
      <trkpt lat="50.65105" lon="9.13896">
        <ele>309.03</ele>
      </trkpt>
      <trkpt lat="50.65107" lon="9.1393">
        <ele>305.6</ele>
        <time>2015-03-14T19:39:59Z</time>
      </trkpt>
      <trkpt lat="50.65034" lon="9.14051">
        <ele>309.38</ele>
        <time>2015-03-14T19:45:05Z</time>
      </trkpt>
      <trkpt lat="50.65009" lon="9.14044">
        <ele>310.13</ele>
        <time>2015-03-14T19:45:09Z</time>
      </trkpt>
      <trkpt lat="50.64965" lon="9.14034">
        <ele>312.75</ele>
      </trkpt>
      <trkpt lat="50.64892" lon="9.13945">
        <ele>326.81</ele>
        <time>2015-03-14T19:47:18Z</time>
      </trkpt>
      <trkpt lat="50.64865" lon="9.13929">
        <ele>328.09</ele>
        <time>2015-03-14T19:47:23Z</time>
      </trkpt>
      <trkpt lat="50.64792" lon="9.13957">
        <ele>334.56</ele>
      </trkpt>
      <trkpt lat="50.64724" lon="9.14033">
        <ele>338.74</ele>
      </trkpt>
      <trkpt lat="50.64678" lon="9.1411">
        <ele>342.21</ele>
        <time>2015-03-14T19:50:41Z</time>
      </trkpt>
      <trkpt lat="50.64644" lon="9.1416">
        <ele>346.04</ele>
      </trkpt>
      <trkpt lat="50.6457" lon="9.14182">
        <ele>347.98</ele>
      </trkpt>
      <trkpt lat="50.64543" lon="9.14207">
        <ele>348.75</ele>
      </trkpt>
      <trkpt lat="50.64492" lon="9.14267">
        <ele>350.02</ele>
      </trkpt>
      <trkpt lat="50.64448" lon="9.143">
        <ele>356.99</ele>
      </trkpt>
      <trkpt lat="50.64382" lon="9.14327">
        <ele>358.52</ele>
        <time>2015-03-14T19:55:22Z</time>
      </trkpt>
      <trkpt lat="50.64303" lon="9.14397">
        <ele>371.27</ele>
      </trkpt>
      <trkpt lat="50.6411" lon="9.14539">
        <ele>374.41</ele>
      </trkpt>
      <trkpt lat="50.64054" lon="9.14629">
        <ele>379.24</ele>
      </trkpt>
      <trkpt lat="50.63899" lon="9.14709">
        <ele>374.81</ele>
      </trkpt>
      <trkpt lat="50.63828" lon="9.14778">
        <ele>370.61</ele>
      </trkpt>
      <trkpt lat="50.63818" lon="9.14808">
        <ele>368.35</ele>
      </trkpt>
      <trkpt lat="50.63777" lon="9.14875">
        <ele>363.54</ele>
      </trkpt>
      <trkpt lat="50.63751" lon="9.14891">
        <ele>363.89</ele>
      </trkpt>
      <trkpt lat="50.63704" lon="9.14885">
        <ele>366.2</ele>
      </trkpt>
      <trkpt lat="50.63627" lon="9.14896">
        <ele>370.39</ele>
      </trkpt>
      <trkpt lat="50.63611" lon="9.14881">
        <ele>370.73</ele>
      </trkpt>
      <trkpt lat="50.63584" lon="9.14895">
        <ele>372.31</ele>
      </trkpt>
      <trkpt lat="50.63688" lon="9.15144">
        <ele>349.33</ele>
      </trkpt>
      <trkpt lat="50.63704" lon="9.15161">
        <ele>348.37</ele>
        <time>2015-03-14T20:13:08Z</time>
      </trkpt>
      <trkpt lat="50.63773" lon="9.15146">
        <ele>350.09</ele>
      </trkpt>
      <trkpt lat="50.63828" lon="9.15197">
        <ele>339.54</ele>
        <time>2015-03-14T20:15:15Z</time>
      </trkpt>
      <trkpt lat="50.63857" lon="9.15269">
        <ele>333.71</ele>
      </trkpt>
      <trkpt lat="50.63916" lon="9.15462">
        <ele>322.33</ele>
      </trkpt>
      <trkpt lat="50.63947" lon="9.15519">
        <ele>324.78</ele>
        <time>2015-03-14T20:18:27Z</time>
      </trkpt>
      <trkpt lat="50.63962" lon="9.15619">
        <ele>330.9</ele>
      </trkpt>
      <trkpt lat="50.63997" lon="9.15686">
        <ele>333.64</ele>
      </trkpt>
      <trkpt lat="50.63928" lon="9.15727">
        <ele>330.97</ele>
      </trkpt>
      <trkpt lat="50.63851" lon="9.15857">
        <ele>338.07</ele>
      </trkpt>
      <trkpt lat="50.63822" lon="9.15863">
        <ele>339.2</ele>
      </trkpt>
      <trkpt lat="50.63749" lon="9.15829">
        <ele>335.35</ele>
      </trkpt>
      <trkpt lat="50.63712" lon="9.15835">
        <ele>335.89</ele>
      </trkpt>
      <trkpt lat="50.63686" lon="9.15887">
        <ele>338.41</ele>
      </trkpt>
      <trkpt lat="50.63634" lon="9.15943">
        <ele>338.79</ele>
      </trkpt>
      <trkpt lat="50.63582" lon="9.15971">
        <ele>342.92</ele>
      </trkpt>
      <trkpt lat="50.63522" lon="9.16006">
        <ele>345.22</ele>
      </trkpt>
      <trkpt lat="50.6344" lon="9.16069">
        <ele>344.13</ele>
      </trkpt>
      <trkpt lat="50.63288" lon="9.16275">
        <ele>358.19</ele>
      </trkpt>
      <trkpt lat="50.63267" lon="9.16341">
        <ele>359.39</ele>
        <time>2015-03-14T20:31:02Z</time>
      </trkpt>
      <trkpt lat="50.63277" lon="9.16371">
        <ele>363.2</ele>
      </trkpt>
      <trkpt lat="50.63369" lon="9.16396">
        <ele>368.58</ele>
      </trkpt>
      <trkpt lat="50.63369" lon="9.1642">
        <ele>370.21</ele>
      </trkpt>
      <trkpt lat="50.63312" lon="9.16536">
        <ele>380.06</ele>
      </trkpt>
      <trkpt lat="50.63386" lon="9.16667">
        <ele>397.91</ele>
        <time>2015-03-14T20:36:19Z</time>
      </trkpt>
      <trkpt lat="50.63423" lon="9.16758">
        <ele>405.52</ele>
        <time>2015-03-14T20:37:56Z</time>
      </trkpt>
      <trkpt lat="50.63382" lon="9.16905">
        <ele>399.06</ele>
      </trkpt>
      <trkpt lat="50.63451" lon="9.16937">
        <ele>413.99</ele>
      </trkpt>
      <trkpt lat="50.63502" lon="9.1699">
        <ele>409.96</ele>
      </trkpt>
      <trkpt lat="50.63551" lon="9.17013">
        <ele>412.61</ele>
      </trkpt>
      <trkpt lat="50.6359" lon="9.17017">
        <ele>411.81</ele>
      </trkpt>
      <trkpt lat="50.63644" lon="9.17007">
        <ele>414.98</ele>
      </trkpt>
      <trkpt lat="50.63688" lon="9.17042">
        <ele>413.83</ele>
      </trkpt>
      <trkpt lat="50.6373" lon="9.17082">
        <ele>408.39</ele>
      </trkpt>
      <trkpt lat="50.63756" lon="9.17087">
        <ele>405.08</ele>
      </trkpt>
      <trkpt lat="50.63853" lon="9.17043">
        <ele>399.96</ele>
      </trkpt>
      <trkpt lat="50.63957" lon="9.1702">
        <ele>404.42</ele>
      </trkpt>
      <trkpt lat="50.64006" lon="9.16996">
        <ele>403.88</ele>
      </trkpt>
      <trkpt lat="50.64067" lon="9.16988">
        <ele>402.12</ele>
      </trkpt>
      <trkpt lat="50.64091" lon="9.16968">
        <ele>398.61</ele>
      </trkpt>
      <trkpt lat="50.64103" lon="9.16762">
        <ele>388.66</ele>
      </trkpt>
      <trkpt lat="50.64236" lon="9.16735">
        <ele>376.01</ele>
        <time>2015-03-14T20:55:41Z</time>
      </trkpt>
      <trkpt lat="50.64289" lon="9.16839">
        <ele>368.51</ele>
      </trkpt>
      <trkpt lat="50.64334" lon="9.16863">
        <ele>356.88</ele>
      </trkpt>
      <trkpt lat="50.64362" lon="9.16861">
        <ele>354.98</ele>
      </trkpt>
      <trkpt lat="50.64417" lon="9.16848">
        <ele>356.4</ele>
      </trkpt>
      <trkpt lat="50.64514" lon="9.16848">
        <ele>352.4</ele>
      </trkpt>
      <trkpt lat="50.64518" lon="9.16825">
        <ele>355.54</ele>
      </trkpt>
      <trkpt lat="50.64527" lon="9.16852">
        <ele>353.23</ele>
      </trkpt>
      <trkpt lat="50.6457" lon="9.16862">
        <ele>354.43</ele>
        <time>2015-03-14T21:01:32Z</time>
      </trkpt>
      <trkpt lat="50.64671" lon="9.16886">
        <ele>349.86</ele>
      </trkpt>
      <trkpt lat="50.64866" lon="9.16859">
        <ele>355.36</ele>
      </trkpt>
      <trkpt lat="50.64911" lon="9.16852">
        <ele>344.63</ele>
      </trkpt>
      <trkpt lat="50.64924" lon="9.16887">
        <ele>336.92</ele>
      </trkpt>
      <trkpt lat="50.64957" lon="9.16893">
        <ele>331.27</ele>
        <time>2015-03-14T21:08:03Z</time>
      </trkpt>
      <trkpt lat="50.64951" lon="9.17005">
        <ele>323.57</ele>
        <time>2015-03-14T21:09:09Z</time>
      </trkpt>
      <trkpt lat="50.6502" lon="9.17013">
        <ele>322.19</ele>
      </trkpt>
      <trkpt lat="50.65033" lon="9.17036">
        <ele>319.65</ele>
      </trkpt>
      <trkpt lat="50.64994" lon="9.17131">
        <ele>323.16</ele>
      </trkpt>
      <trkpt lat="50.64978" lon="9.17163">
        <ele>322.03</ele>
        <time>2015-03-14T21:10:50Z</time>
      </trkpt>
    </trkseg>
  </trk>
</gpx>
